Plaza Tower, Tennessee
Current Conditions -  °F | °C
As of 4:53 AM on Saturday 22 Nov 2014 (Local Time) from KTYS Reporting Station
Few Clouds Few Clouds  
Wind Chill: 27°   Ceiling: Unl
Heat Index: 27°   Visibility: 10mi
Dew Point: 22°   Wind: 0mph
Humidity: 81%   Direction: NA
Pressure: 30.43"   Gusts: NA
Location:  35.9605°N, 83.9208°W
Report Text: KTYS 220953Z 00000KT 10SM FEW250 M03/M06 A3043 RMK AO2 SLP309 T10281056
Loading
Personal Weather Stations






























Interactive Weather Map New forecast layout! Learn more

10-Day Weather Forecast

Advertisements
Track Severe Weather on mobile